Time;durP1;ratioP1;P1;durP2;ratioP2;P2;SDS_P1;SDS_P2;PMS_P1;PMS_P2;Temp;Humidity;BMP_temperature;BMP_pressure;BME280_temperature;BME280_humidity;BME280_pressure;Samples;Min_cycle;Max_cycle;Signal;HPM_P1;HPM_P2
2023/11/28 00:00:28;;;;;;;1999.90;999.90;;;;;;;8.37;72.14;99632.66;10417923;28;20049;-73
2023/11/28 00:05:31;;;;;;;1999.90;999.90;;;;;;;9.05;69.79;99641.97;10416582;28;20405;-73
2023/11/28 00:10:33;;;;;;;1999.90;999.90;;;;;;;7.85;71.75;99657.78;10417522;28;20129;-73
2023/11/28 00:15:35;;;;;;;1999.90;999.90;;;;;;;8.69;71.01;99653.16;10417327;28;20554;-73
2023/11/28 00:20:38;;;;;;;1999.90;999.90;;;;;;;8.82;71.18;99658.41;10416946;28;20045;-73
2023/11/28 00:25:40;;;;;;;1999.90;999.90;;;;;;;7.60;74.51;99668.94;10416340;28;20049;-72
2023/11/28 00:30:43;;;;;;;1999.90;999.90;;;;;;;8.28;72.38;99673.22;10417149;28;20492;-73
2023/11/28 00:35:46;;;;;;;1999.90;999.90;;;;;;;8.12;72.97;99694.25;10416486;28;20060;-72
2023/11/28 00:40:48;;;;;;;1999.90;999.90;;;;;;;8.78;70.59;99694.31;10398737;28;20050;-72
2023/11/28 00:45:51;;;;;;;1999.90;999.90;;;;;;;8.43;72.32;99692.28;10416173;28;20443;-72
2023/11/28 00:50:53;;;;;;;1999.90;999.90;;;;;;;8.67;72.50;99712.47;10423845;22;20072;-74
2023/11/28 00:55:55;;;;;;;1999.90;999.90;;;;;;;8.50;71.34;99721.41;10416123;28;20053;-73
2023/11/28 01:00:58;;;;;;;1999.90;999.90;;;;;;;8.70;71.04;99735.75;10415690;28;20072;-73
2023/11/28 01:06:00;;;;;;;1999.90;999.90;;;;;;;8.48;71.64;99747.59;10415928;28;20055;-73
2023/11/28 01:11:03;;;;;;;1999.90;999.90;;;;;;;9.09;69.19;99763.56;10415449;28;20477;-73
2023/11/28 01:16:08;;;;;;;1999.90;999.90;;;;;;;8.24;71.98;99768.25;10398417;28;20052;-74
2023/11/28 01:21:10;;;;;;;1999.90;999.90;;;;;;;8.16;71.24;99781.75;10398034;28;20052;-73
2023/11/28 01:26:13;;;;;;;1999.90;999.90;;;;;;;8.11;71.17;99796.88;10397736;28;20049;-73
2023/11/28 01:31:15;;;;;;;1999.90;999.90;;;;;;;7.95;71.23;99797.00;10415357;28;20049;-73
2023/11/28 01:36:18;;;;;;;1999.90;999.90;;;;;;;8.14;71.03;99807.09;10421715;28;20060;-73
2023/11/28 01:41:20;;;;;;;1999.90;999.90;;;;;;;7.94;69.99;99821.38;10405932;28;20045;-73
2023/11/28 01:46:23;;;;;;;1999.90;999.90;;;;;;;8.42;70.47;99834.03;10422261;28;20049;-74
2023/11/28 01:51:25;;;;;;;1999.90;999.90;;;;;;;8.02;70.42;99848.72;10405367;28;20057;-74
2023/11/28 01:56:32;;;;;;;1999.90;999.90;;;;;;;8.43;70.22;99855.78;10422904;28;20484;-74
2023/11/28 02:01:34;;;;;;;1999.90;999.90;;;;;;;8.08;68.63;99871.81;10405098;28;20041;-74
2023/11/28 02:06:39;;;;;;;1999.90;999.90;;;;;;;8.55;69.70;99884.50;10388821;28;20049;-74
2023/11/28 02:11:41;;;;;;;1999.90;999.90;;;;;;;8.44;68.49;99884.38;10421979;28;20507;-74
2023/11/28 02:16:44;;;;;;;1999.90;999.90;;;;;;;7.89;70.81;99898.19;10388340;28;20053;-74
2023/11/28 02:21:47;;;;;;;1999.90;999.90;;;;;;;8.00;71.47;99896.59;10404544;28;20053;-74
2023/11/28 02:26:50;;;;;;;1999.90;999.90;;;;;;;8.14;69.10;99908.78;10387758;28;20099;-73
2023/11/28 02:31:52;;;;;;;1999.90;999.90;;;;;;;7.65;68.63;99916.09;10421652;28;20124;-74
2023/11/28 02:36:54;;;;;;;1999.90;999.90;;;;;;;7.36;70.58;99932.53;10403814;28;20140;-73
2023/11/28 02:41:57;;;;;;;1999.90;999.90;;;;;;;8.26;69.51;99933.28;10421226;28;20099;-73
2023/11/28 02:46:59;;;;;;;1999.90;999.90;;;;;;;8.61;68.56;99939.84;10402182;28;20049;-74
2023/11/28 02:52:02;;;;;;;1999.90;999.90;;;;;;;7.24;70.70;99954.06;10420669;28;20091;-73
2023/11/28 02:57:04;;;;;;;1999.90;999.90;;;;;;;7.62;69.75;99958.81;10402997;28;20377;-73
2023/11/28 03:02:06;;;;;;;1999.90;999.90;;;;;;;7.72;70.02;99970.38;10402566;28;20042;-73
2023/11/28 03:07:09;;;;;;;1999.90;999.90;;;;;;;7.96;68.07;99972.47;10420009;28;20069;-73
2023/11/28 03:12:11;;;;;;;1999.90;999.90;;;;;;;8.37;66.31;99969.97;10402471;28;20129;-73
2023/11/28 03:17:13;;;;;;;1999.90;999.90;;;;;;;7.89;67.80;99968.56;10419964;28;20052;-73
2023/11/28 03:22:16;;;;;;;1999.90;999.90;;;;;;;8.41;66.67;99993.25;10419696;28;20435;-73
2023/11/28 03:27:18;;;;;;;1999.90;999.90;;;;;;;7.71;67.96;99997.34;10401700;28;20060;-73
2023/11/28 03:32:21;;;;;;;1999.90;999.90;;;;;;;7.64;67.99;100001.25;10419088;28;20408;-73
2023/11/28 03:37:24;;;;;;;1999.90;999.90;;;;;;;7.57;67.70;100016.41;10401855;28;20160;-73
2023/11/28 03:42:27;;;;;;;1999.90;999.90;;;;;;;8.04;66.49;100021.56;10385069;28;20059;-73
2023/11/28 03:47:29;;;;;;;1999.90;999.90;;;;;;;6.90;68.42;100047.03;10418369;28;20049;-73
2023/11/28 03:52:31;;;;;;;1999.90;999.90;;;;;;;7.53;68.24;100050.53;10417270;28;20057;-73
2023/11/28 03:57:34;;;;;;;1999.90;999.90;;;;;;;7.25;68.93;100062.50;10418304;28;20107;-73
2023/11/28 04:02:36;;;;;;;1999.90;999.90;;;;;;;8.27;64.35;100067.97;10416854;28;20053;-73
2023/11/28 04:07:39;;;;;;;1999.90;999.90;;;;;;;6.96;67.63;100084.88;10417781;28;20496;-73
2023/11/28 04:12:41;;;;;;;1999.90;999.90;;;;;;;7.38;66.96;100094.75;10417441;28;20053;-73
2023/11/28 04:17:44;;;;;;;1999.90;999.90;;;;;;;6.26;65.43;100111.06;10399958;28;20480;-73
2023/11/28 04:22:47;;;;;;;1999.90;999.90;;;;;;;7.47;65.13;100110.78;10399880;28;20432;-73
2023/11/28 04:27:50;;;;;;;1999.90;999.90;;;;;;;8.04;64.22;100113.63;10417110;28;20123;-73
2023/11/28 04:32:52;;;;;;;1999.90;999.90;;;;;;;7.67;64.80;100133.97;10417058;28;20156;-73
2023/11/28 04:37:54;;;;;;;1999.90;999.90;;;;;;;6.74;64.20;100140.69;10399192;28;20422;-73
2023/11/28 04:42:57;;;;;;;1999.90;999.90;;;;;;;6.62;64.78;100142.16;10383118;28;20045;-73
2023/11/28 04:47:59;;;;;;;1999.90;999.90;;;;;;;7.01;63.21;100142.75;10398671;28;20056;-73
2023/11/28 04:53:02;;;;;;;1999.90;999.90;;;;;;;6.67;64.81;100160.97;10416201;28;20057;-73
2023/11/28 04:58:04;;;;;;;1999.90;999.90;;;;;;;6.88;64.75;100173.78;10398525;28;20049;-73
2023/11/28 05:03:06;;;;;;;1999.90;999.90;;;;;;;6.99;64.04;100181.03;10414513;28;20057;-73
2023/11/28 05:08:09;;;;;;;1999.90;999.90;;;;;;;7.16;64.17;100191.41;10415238;28;20049;-73
2023/11/28 05:13:12;;;;;;;1999.90;999.90;;;;;;;6.36;64.97;100194.66;10414385;28;20057;-72
2023/11/28 05:18:14;;;;;;;1999.90;999.90;;;;;;;6.57;64.61;100200.53;10415826;28;20051;-73
2023/11/28 05:23:16;;;;;;;1999.90;999.90;;;;;;;6.30;64.16;100208.78;10415215;28;20057;-73
2023/11/28 05:28:19;;;;;;;1999.90;999.90;;;;;;;6.61;64.86;100218.50;10415018;28;20485;-73
2023/11/28 05:33:21;;;;;;;1999.90;999.90;;;;;;;5.75;66.08;100218.28;10415135;28;20049;-73
2023/11/28 05:38:23;;;;;;;1999.90;999.90;;;;;;;6.31;65.90;100239.91;10414774;28;20393;-73
2023/11/28 05:43:30;;;;;;;1999.90;999.90;;;;;;;6.36;66.73;100251.84;10414919;28;20060;-73
2023/11/28 05:48:32;;;;;;;1999.90;999.90;;;;;;;6.18;65.77;100261.38;10397460;28;20096;-73
2023/11/28 05:53:35;;;;;;;1999.90;999.90;;;;;;;6.78;66.71;100267.09;10397171;28;20140;-73
2023/11/28 05:58:37;;;;;;;1999.90;999.90;;;;;;;5.79;69.24;100278.72;10397213;28;20050;-73
2023/11/28 06:03:40;;;;;;;1999.90;999.90;;;;;;;6.37;66.12;100282.13;10414362;28;20404;-73
2023/11/28 06:08:42;;;;;;;1999.90;999.90;;;;;;;6.79;65.52;100291.34;10380815;28;20056;-73
2023/11/28 06:13:45;;;;;;;1999.90;999.90;;;;;;;6.62;67.41;100306.03;10414120;28;20477;-73
2023/11/28 06:18:47;;;;;;;1999.90;999.90;;;;;;;7.35;64.82;100302.41;10397472;28;20054;-74
2023/11/28 06:23:50;;;;;;;1999.90;999.90;;;;;;;6.62;67.90;100318.19;10422002;28;20128;-73
2023/11/28 06:28:52;;;;;;;1999.90;999.90;;;;;;;6.29;66.16;100331.91;10403999;28;20425;-73
2023/11/28 06:33:54;;;;;;;1999.90;999.90;;;;;;;6.82;65.06;100333.66;10421482;28;20103;-73
2023/11/28 06:38:57;;;;;;;1999.90;999.90;;;;;;;7.21;65.38;100349.97;10421057;28;20046;-74
2023/11/28 06:43:59;;;;;;;1999.90;999.90;;;;;;;7.71;64.51;100366.53;10421166;28;20053;-73
2023/11/28 06:49:06;;;;;;;1999.90;999.90;;;;;;;6.91;64.95;100366.22;10420888;28;20057;-73
2023/11/28 06:54:10;;;;;;;1999.90;999.90;;;;;;;7.71;63.35;100367.38;10420812;28;20140;-74
2023/11/28 06:59:12;;;;;;;1999.90;999.90;;;;;;;7.24;65.57;100376.69;10420505;28;20579;-74
2023/11/28 07:04:15;;;;;;;1999.90;999.90;;;;;;;7.03;65.04;100378.63;10403012;28;20052;-73
2023/11/28 07:09:17;;;;;;;1999.90;999.90;;;;;;;7.13;64.82;100383.34;10420024;28;20440;-73
2023/11/28 07:14:20;;;;;;;1999.90;999.90;;;;;;;7.36;65.19;100395.22;10419930;28;20073;-74
2023/11/28 07:19:22;;;;;;;1999.90;999.90;;;;;;;7.28;65.29;100395.63;10419724;28;20045;-73
2023/11/28 07:24:25;;;;;;;1999.90;999.90;;;;;;;7.84;62.46;100417.09;10419453;28;20053;-73
2023/11/28 07:29:27;;;;;;;1999.90;999.90;;;;;;;7.02;64.28;100417.75;10419825;28;20128;-73
2023/11/28 07:34:30;;;;;;;1999.90;999.90;;;;;;;6.87;66.42;100432.34;10418546;28;20045;-73
2023/11/28 07:39:32;;;;;;;1999.90;999.90;;;;;;;7.20;63.93;100435.06;10418719;28;20121;-74
2023/11/28 07:44:35;;;;;;;1999.90;999.90;;;;;;;7.56;63.67;100441.13;10418880;28;20073;-73
2023/11/28 07:49:37;;;;;;;1999.90;999.90;;;;;;;7.73;63.10;100451.53;10401190;28;20111;-73
2023/11/28 07:54:40;;;;;;;1999.90;999.90;;;;;;;6.92;65.26;100472.00;10418117;28;20477;-73
2023/11/28 07:59:46;;;;;;;1999.90;999.90;;;;;;;8.00;63.56;100471.88;10418089;28;20128;-73
2023/11/28 08:04:49;;;;;;;1999.90;999.90;;;;;;;7.48;64.07;100483.19;10418231;28;20053;-73
2023/11/28 08:09:51;;;;;;;1999.90;999.90;;;;;;;7.71;63.08;100479.44;10417598;28;20455;-73
2023/11/28 08:14:54;;;;;;;1999.90;999.90;;;;;;;7.77;64.13;100494.75;10417437;28;20049;-73
2023/11/28 08:19:57;;;;;;;1999.90;999.90;;;;;;;7.46;64.31;100505.03;10417755;28;20045;-73
2023/11/28 08:25:00;;;;;;;1999.90;999.90;;;;;;;7.65;62.29;100505.81;10399862;28;20079;-73
2023/11/28 08:30:04;;;;;;;1999.90;999.90;;;;;;;8.35;63.32;100514.41;10417536;28;20045;-74
2023/11/28 08:35:07;;;;;;;1999.90;999.90;;;;;;;7.98;62.01;100521.53;10399371;28;20057;-74
2023/11/28 08:40:10;;;;;;;1999.90;999.90;;;;;;;7.90;62.02;100517.59;10416430;28;20042;-73
2023/11/28 08:45:13;;;;;;;1999.90;999.90;;;;;;;8.24;62.89;100536.72;10415562;28;20049;-73
2023/11/28 08:50:15;;;;;;;1999.90;999.90;;;;;;;8.82;62.57;100543.28;10398620;28;20069;-74
2023/11/28 08:55:18;;;;;;;1999.90;999.90;;;;;;;9.01;60.26;100554.41;10415970;28;20057;-73
2023/11/28 09:00:21;;;;;;;1999.90;999.90;;;;;;;8.65;61.83;100546.78;10415872;28;20041;-73
2023/11/28 09:05:23;;;;;;;1999.90;999.90;;;;;;;8.83;61.57;100552.81;10416065;28;20049;-73
2023/11/28 09:10:26;;;;;;;1999.90;999.90;;;;;;;13.18;55.49;100550.03;10415753;28;20532;-74
2023/11/28 09:15:29;;;;;;;1999.90;999.90;;;;;;;15.36;50.94;100544.81;10415479;28;20083;-74
2023/11/28 09:20:31;;;;;;;1999.90;999.90;;;;;;;16.37;52.51;100534.69;10415381;28;20047;-74
2023/11/28 09:25:33;;;;;;;1999.90;999.90;;;;;;;16.80;51.10;100552.13;10415264;28;20099;-75
2023/11/28 09:30:36;;;;;;;1999.90;999.90;;;;;;;16.09;45.80;100566.09;10397690;28;20477;-75
2023/11/28 09:35:40;;;;;;;1999.90;999.90;;;;;;;15.91;47.42;100564.03;10397606;28;20136;-74
2023/11/28 09:40:42;;;;;;;1999.90;999.90;;;;;;;14.06;48.83;100572.50;10414922;28;20054;-74
2023/11/28 09:45:45;;;;;;;1999.90;999.90;;;;;;;13.76;49.98;100579.13;10397446;28;20057;-74
2023/11/28 09:50:48;;;;;;;1999.90;999.90;;;;;;;11.30;52.15;100583.72;10381059;28;20124;-74
2023/11/28 09:55:52;;;;;;;1999.90;999.90;;;;;;;11.29;54.04;100584.63;10401118;28;20057;-74
2023/11/28 10:00:58;;;;;;;1999.90;999.90;;;;;;;9.59;55.34;100589.50;10405195;28;20485;-74
2023/11/28 10:06:01;;;;;;;1999.90;999.90;;;;;;;10.52;52.79;100585.00;10405498;28;20060;-74
2023/11/28 10:11:05;;;;;;;1999.90;999.90;;;;;;;9.96;54.89;100594.41;10405088;28;20052;-74
2023/11/28 10:16:08;;;;;;;1999.90;999.90;;;;;;;9.69;55.79;100591.63;10405018;28;20053;-74
2023/11/28 10:21:11;;;;;;;1999.90;999.90;;;;;;;10.07;54.31;100588.53;10422030;28;20133;-74
2023/11/28 10:26:13;;;;;;;1999.90;999.90;;;;;;;10.03;52.29;100580.88;10421911;28;20128;-74
2023/11/28 10:31:19;;;;;;;1999.90;999.90;;;;;;;9.74;57.09;100576.50;10421899;28;20042;-74
2023/11/28 10:36:22;;;;;;;1999.90;999.90;;;;;;;9.80;56.05;100589.22;10421484;28;20072;-74
2023/11/28 10:41:33;;;;;;;1999.90;999.90;;;;;;;10.21;55.48;100576.34;10421360;28;20049;-74
2023/11/28 10:46:36;;;;;;;;;;;;;;;10.06;53.71;100572.00;10421486;28;20050;-74
2023/11/28 10:51:39;;;;;;;1999.90;999.90;;;;;;;9.53;55.50;100587.25;10419532;28;20249;-74
2023/11/28 10:56:49;;;;;;;1999.90;999.90;;;;;;;9.98;52.37;100574.22;10403628;28;20067;-73
2023/11/28 11:01:51;;;;;;;1999.90;999.90;;;;;;;10.01;53.76;100576.66;10402876;28;20132;-73
2023/11/28 11:06:54;;;;;;;1999.90;999.90;;;;;;;9.31;54.81;100584.97;10402064;28;20104;-73
2023/11/28 11:11:57;;;;;;;1999.90;999.90;;;;;;;9.76;54.58;100585.94;10420130;28;20052;-73
2023/11/28 11:17:31;;;;;;;1999.90;999.90;;;;;;;9.85;55.07;100597.63;10402700;28;20049;-73
2023/11/28 11:22:51;;;;;;;1999.90;999.90;;;;;;;9.86;53.57;100596.72;10402652;28;20042;-73
2023/11/28 11:27:54;;;;;;;1999.90;999.90;;;;;;;10.94;53.83;100593.78;10402478;28;20103;-74
2023/11/28 11:32:56;;;;;;;1999.90;999.90;;;;;;;9.67;54.71;100599.53;10419275;28;20470;-74
2023/11/28 11:38:01;;;;;;;1999.90;999.90;;;;;;;9.99;56.97;100591.63;10401817;28;20111;-73
2023/11/28 11:43:06;;;;;;;1999.90;999.90;;;;;;;10.87;54.05;100602.09;10418758;28;20050;-74
2023/11/28 11:48:27;;;;;;;1999.90;999.90;;;;;;;9.40;53.69;100615.84;10401150;28;20049;-74
2023/11/28 11:53:31;;;;;;;;;;;;;;;10.40;55.04;100614.53;10402057;28;20516;-73
2023/11/28 11:58:33;;;;;;;1999.90;999.90;;;;;;;9.55;55.68;100631.56;10418599;28;20004;-73
2023/11/28 12:03:36;;;;;;;1999.90;999.90;;;;;;;9.15;56.49;100636.41;10418019;28;20160;-73
2023/11/28 12:08:40;;;;;;;1999.90;999.90;;;;;;;9.05;56.34;100633.44;10400645;28;20060;-73
2023/11/28 12:13:42;;;;;;;1999.90;999.90;;;;;;;10.45;55.15;100637.81;10417955;28;20128;-74
2023/11/28 12:18:45;;;;;;;1999.90;999.90;;;;;;;9.83;55.33;100641.31;10399886;28;20057;-74
2023/11/28 12:23:47;;;;;;;1999.90;999.90;;;;;;;9.58;56.24;100636.63;10417228;28;20046;-73
2023/11/28 12:28:49;;;;;;;1999.90;999.90;;;;;;;9.93;55.48;100636.41;10417074;28;20061;-74
2023/11/28 12:33:52;;;;;;;1999.90;999.90;;;;;;;9.56;55.97;100641.13;10399682;28;20076;-73
2023/11/28 12:39:01;;;;;;;1999.90;999.90;;;;;;;9.85;55.29;100634.22;10399369;28;20049;-73
2023/11/28 12:44:12;;;;;;;1999.90;999.90;;;;;;;10.13;54.78;100641.34;10399479;28;20046;-74
2023/11/28 12:49:16;;;;;;;1999.90;999.90;;;;;;;9.13;55.73;100639.09;10398991;28;20049;-73
2023/11/28 12:54:18;;;;;;;1999.90;999.90;;;;;;;9.74;55.68;100636.63;10416170;28;20065;-73
2023/11/28 12:59:23;;;;;;;1999.90;999.90;;;;;;;9.47;55.82;100642.47;10416247;28;20045;-73
2023/11/28 13:04:26;;;;;;;1999.90;999.90;;;;;;;9.59;55.70;100647.00;10398556;28;20060;-73
2023/11/28 13:09:28;;;;;;;1999.90;999.90;;;;;;;9.69;54.63;100642.13;10423872;22;20137;-73
2023/11/28 13:14:31;;;;;;;1999.90;999.90;;;;;;;9.99;54.80;100642.16;10398268;28;20132;-73
2023/11/28 13:19:33;;;;;;;1999.90;999.90;;;;;;;10.85;55.95;100633.63;10397972;28;20057;-73
2023/11/28 13:24:36;;;;;;;1999.90;999.90;;;;;;;10.25;55.93;100645.03;10414821;28;20078;-73
2023/11/28 13:29:39;;;;;;;1999.90;999.90;;;;;;;9.78;56.49;100657.28;10414601;28;20048;-73
2023/11/28 13:34:44;;;;;;;1999.90;999.90;;;;;;;9.89;56.36;100653.22;10414196;28;20051;-73
2023/11/28 13:39:46;;;;;;;1999.90;999.90;;;;;;;9.65;55.90;100643.22;10414884;28;20464;-73
2023/11/28 13:44:48;;;;;;;1999.90;999.90;;;;;;;9.80;54.30;100647.59;10415128;28;20125;-73
2023/11/28 13:49:51;;;;;;;1999.90;999.90;;;;;;;9.32;54.83;100644.16;10397510;28;20056;-73
2023/11/28 13:54:57;;;;;;;1999.90;999.90;;;;;;;9.69;54.77;100656.97;10415128;28;20045;-73
2023/11/28 14:00:00;;;;;;;1999.90;999.90;;;;;;;9.63;53.24;100658.13;10414721;28;20056;-73
2023/11/28 14:05:02;;;;;;;1999.90;999.90;;;;;;;8.51;55.28;100670.16;10380738;28;20467;-73
2023/11/28 14:10:08;;;;;;;1999.90;999.90;;;;;;;9.42;54.99;100668.00;10414679;28;20104;-73
2023/11/28 14:15:10;;;;;;;1999.90;999.90;;;;;;;9.24;55.26;100675.91;10397822;28;20049;-73
2023/11/28 14:20:13;;;;;;;1999.90;999.90;;;;;;;9.32;55.41;100678.13;10414395;28;20084;-73
2023/11/28 14:25:15;;;;;;;1999.90;999.90;;;;;;;9.20;54.49;100658.72;10413123;28;20100;-73
2023/11/28 14:30:17;;;;;;;1999.90;999.90;;;;;;;9.31;54.86;100660.75;10414062;28;20046;-73
2023/11/28 14:35:20;;;;;;;1999.90;999.90;;;;;;;9.05;56.21;100659.53;10396881;28;20049;-73
2023/11/28 14:40:22;;;;;;;1999.90;999.90;;;;;;;9.09;56.34;100654.09;10413982;28;20145;-73
2023/11/28 14:45:25;;;;;;;1999.90;999.90;;;;;;;9.22;55.83;100649.03;10421572;28;20049;-73
2023/11/28 14:50:27;;;;;;;1999.90;999.90;;;;;;;8.85;57.98;100653.59;10421076;28;20045;-72
2023/11/28 14:55:30;;;;;;;1999.90;999.90;;;;;;;8.71;56.94;100648.28;10421198;28;20057;-73
2023/11/28 15:00:33;;;;;;;1999.90;999.90;;;;;;;8.53;56.94;100650.06;10420600;28;20554;-73
2023/11/28 15:05:36;;;;;;;1999.90;999.90;;;;;;;8.66;57.77;100658.09;10403118;28;20053;-72
2023/11/28 15:10:38;;;;;;;1999.90;999.90;;;;;;;8.36;57.52;100654.31;10420340;28;20416;-73
2023/11/28 15:15:41;;;;;;;1999.90;999.90;;;;;;;8.46;57.45;100662.56;10418931;28;20133;-73
2023/11/28 15:20:45;;;;;;;1999.90;999.90;;;;;;;8.29;59.30;100662.56;10402529;28;20515;-72
2023/11/28 15:25:48;;;;;;;1999.90;999.90;;;;;;;8.21;59.50;100659.47;10402406;28;20046;-73
2023/11/28 15:30:51;;;;;;;1999.90;999.90;;;;;;;8.52;58.36;100657.03;10385708;28;20103;-73
2023/11/28 15:35:53;;;;;;;1999.90;999.90;;;;;;;8.31;57.99;100669.38;10418079;28;20400;-73
2023/11/28 15:40:56;;;;;;;1999.90;999.90;;;;;;;7.82;59.18;100674.38;10418992;28;20049;-73
2023/11/28 15:45:58;;;;;;;1999.90;999.90;;;;;;;8.16;58.66;100672.75;10401564;28;20046;-73
2023/11/28 15:51:00;;;;;;;1999.90;999.90;;;;;;;8.04;60.54;100673.34;10418654;28;20045;-73
2023/11/28 15:56:03;;;;;;;1999.90;999.90;;;;;;;8.52;58.70;100661.41;10400496;28;20492;-73
2023/11/28 16:01:08;;;;;;;1999.90;999.90;;;;;;;8.28;59.00;100658.25;10418106;28;20152;-73
2023/11/28 16:06:14;;;;;;;1999.90;999.90;;;;;;;7.65;58.79;100656.06;10417998;28;20061;-73
2023/11/28 16:11:17;;;;;;;1999.90;999.90;;;;;;;7.55;58.45;100653.09;10418019;28;20124;-73
2023/11/28 16:16:21;;;;;;;1999.90;999.90;;;;;;;6.74;60.52;100658.47;10417699;28;20061;-73
2023/11/28 16:21:23;;;;;;;1999.90;999.90;;;;;;;6.76;61.00;100655.75;10400547;28;20045;-74
2023/11/28 16:26:26;;;;;;;1999.90;999.90;;;;;;;7.94;59.58;100639.88;10383878;28;20128;-73
2023/11/28 16:31:29;;;;;;;1999.90;999.90;;;;;;;7.99;59.18;100640.50;10416087;28;20051;-74
2023/11/28 16:36:31;;;;;;;1999.90;999.90;;;;;;;6.64;61.66;100647.59;10399348;28;20065;-74
2023/11/28 16:41:35;;;;;;;1999.90;999.90;;;;;;;7.70;59.72;100646.28;10416548;28;20124;-73
2023/11/28 16:46:38;;;;;;;1999.90;999.90;;;;;;;7.22;60.92;100656.31;10399848;28;20128;-72
2023/11/28 16:51:40;;;;;;;1999.90;999.90;;;;;;;7.67;60.29;100649.06;10416355;28;20107;-72
2023/11/28 16:56:43;;;;;;;1999.90;999.90;;;;;;;7.12;60.31;100649.84;10416505;28;20049;-72
2023/11/28 17:01:45;;;;;;;1999.90;999.90;;;;;;;7.40;60.83;100647.66;10415981;28;20054;-72
2023/11/28 17:06:47;;;;;;;1999.90;999.90;;;;;;;6.88;61.55;100663.88;10414879;28;20091;-72
2023/11/28 17:11:51;;;;;;;1999.90;999.90;;;;;;;6.70;62.40;100660.31;10398519;28;20507;-72
2023/11/28 17:16:54;;;;;;;1999.90;999.90;;;;;;;6.26;63.30;100649.22;10398014;28;20083;-72
2023/11/28 17:21:57;;;;;;;1999.90;999.90;;;;;;;6.81;63.14;100643.41;10415417;28;20046;-72
2023/11/28 17:26:59;;;;;;;1999.90;999.90;;;;;;;7.58;59.87;100645.09;10415418;28;20136;-72
2023/11/28 17:32:01;;;;;;;1999.90;999.90;;;;;;;6.82;61.00;100645.09;10415550;28;20056;-72
2023/11/28 17:37:04;;;;;;;1999.90;999.90;;;;;;;6.81;62.06;100630.41;10415346;28;20045;-72
2023/11/28 17:42:06;;;;;;;1999.90;999.90;;;;;;;6.67;61.68;100631.00;10413734;28;20133;-72
2023/11/28 17:47:09;;;;;;;1999.90;999.90;;;;;;;6.45;62.49;100618.06;10413735;28;20045;-72
2023/11/28 17:52:11;;;;;;;1999.90;999.90;;;;;;;7.10;61.04;100597.00;10414705;28;20049;-72
2023/11/28 17:57:14;;;;;;;1999.90;999.90;;;;;;;7.40;60.59;100602.56;10414861;28;20055;-72
2023/11/28 18:02:18;;;;;;;1999.90;999.90;;;;;;;6.63;61.35;100603.44;10413447;28;20495;-72
2023/11/28 18:07:20;;;;;;;1999.90;999.90;;;;;;;6.68;62.69;100598.88;10414587;28;20053;-72
2023/11/28 18:12:23;;;;;;;1999.90;999.90;;;;;;;6.92;62.64;100591.72;10397344;28;20515;-72
2023/11/28 18:17:25;;;;;;;1999.90;999.90;;;;;;;6.36;62.75;100595.91;10418016;28;20477;-72
2023/11/28 18:22:28;;;;;;;1999.90;999.90;;;;;;;6.50;63.23;100605.72;10404705;28;20049;-72
2023/11/28 18:27:31;;;;;;;1999.90;999.90;;;;;;;6.61;63.04;100597.47;10421826;28;20124;-72
2023/11/28 18:32:34;;;;;;;1999.90;999.90;;;;;;;6.67;63.64;100594.56;10421940;28;20049;-72
2023/11/28 18:37:36;;;;;;;1999.90;999.90;;;;;;;6.99;62.11;100587.06;10421476;28;20432;-72
2023/11/28 18:42:38;;;;;;;1999.90;999.90;;;;;;;6.96;61.53;100571.59;10421206;28;20053;-72
2023/11/28 18:47:41;;;;;;;1999.90;999.90;;;;;;;7.13;61.91;100565.59;10403830;28;20057;-72
2023/11/28 18:52:43;;;;;;;1999.90;999.90;;;;;;;6.98;62.27;100559.38;10403468;28;20053;-72
2023/11/28 18:57:46;;;;;;;1999.90;999.90;;;;;;;7.24;60.97;100564.19;10403693;28;20175;-72
2023/11/28 19:02:48;;;;;;;1999.90;999.90;;;;;;;7.00;62.11;100562.75;10420916;28;20128;-72
2023/11/28 19:07:53;;;;;;;1999.90;999.90;;;;;;;6.53;61.38;100552.72;10420471;28;20555;-72
2023/11/28 19:12:56;;;;;;;1999.90;999.90;;;;;;;7.20;61.34;100554.84;10402781;28;20075;-72
2023/11/28 19:17:59;;;;;;;1999.90;999.90;;;;;;;7.11;62.93;100549.22;10420143;28;20049;-72
2023/11/28 19:23:01;;;;;;;1999.90;999.90;;;;;;;6.57;63.06;100539.50;10419803;28;20057;-72
2023/11/28 19:28:04;;;;;;;1999.90;999.90;;;;;;;7.29;62.79;100529.28;10418807;28;20500;-72
2023/11/28 19:33:08;;;;;;;1999.90;999.90;;;;;;;6.62;62.07;100519.34;10419710;28;20099;-72
2023/11/28 19:38:11;;;;;;;1999.90;999.90;;;;;;;6.61;61.92;100512.44;10419318;28;20053;-72
2023/11/28 19:43:14;;;;;;;1999.90;999.90;;;;;;;6.81;62.42;100497.69;10401766;28;20088;-72
2023/11/28 19:48:16;;;;;;;1999.90;999.90;;;;;;;6.80;62.64;100494.22;10418819;28;20045;-72
2023/11/28 19:53:19;;;;;;;1999.90;999.90;;;;;;;6.91;64.35;100488.53;10401145;28;20053;-72
2023/11/28 19:58:21;;;;;;;1999.90;999.90;;;;;;;6.38;64.37;100491.84;10401496;28;20084;-72
2023/11/28 20:03:24;;;;;;;1999.90;999.90;;;;;;;6.64;63.43;100483.69;10418048;28;20497;-72
2023/11/28 20:08:26;;;;;;;1999.90;999.90;;;;;;;6.92;63.30;100477.19;10418019;28;20061;-72
2023/11/28 20:13:29;;;;;;;1999.90;999.90;;;;;;;6.76;63.47;100471.88;10417961;28;20060;-72
2023/11/28 20:18:32;;;;;;;1999.90;999.90;;;;;;;6.28;64.38;100460.19;10417618;28;20057;-72
2023/11/28 20:23:34;;;;;;;1999.90;999.90;;;;;;;7.19;64.47;100456.81;10417580;28;20052;-72
2023/11/28 20:28:36;;;;;;;1999.90;999.90;;;;;;;6.82;63.12;100447.31;10417353;28;20108;-72
2023/11/28 20:33:39;;;;;;;1999.90;999.90;;;;;;;6.08;65.25;100448.91;10417208;28;20045;-73
2023/11/28 20:38:41;;;;;;;1999.90;999.90;;;;;;;6.52;64.91;100447.81;10416878;28;20053;-73
2023/11/28 20:43:45;;;;;;;1999.90;999.90;;;;;;;6.86;63.25;100439.31;10416565;28;20148;-73
2023/11/28 20:48:48;;;;;;;1999.90;999.90;;;;;;;6.24;64.74;100430.06;10416599;28;20077;-72
2023/11/28 20:53:50;;;;;;;1999.90;999.90;;;;;;;6.28;64.92;100413.41;10416295;28;20474;-73
2023/11/28 20:58:52;;;;;;;1999.90;999.90;;;;;;;6.11;66.28;100407.19;10416244;28;20049;-72
2023/11/28 21:03:55;;;;;;;1999.90;999.90;;;;;;;6.31;65.20;100405.47;10415972;28;20133;-72
2023/11/28 21:08:57;;;;;;;1999.90;999.90;;;;;;;7.37;63.96;100396.94;10398414;28;20057;-73
2023/11/28 21:13:59;;;;;;;1999.90;999.90;;;;;;;7.31;62.26;100384.22;10414727;28;20045;-70
2023/11/28 21:19:03;;;;;;;1999.90;999.90;;;;;;;7.27;63.79;100399.16;10398320;28;20057;-70
2023/11/28 21:24:06;;;;;;;1999.90;999.90;;;;;;;7.02;65.38;100379.53;10415310;28;20400;-73
2023/11/28 21:29:09;;;;;;;1999.90;999.90;;;;;;;6.65;65.56;100380.47;10415268;28;20088;-73
2023/11/28 21:34:11;;;;;;;1999.90;999.90;;;;;;;7.13;63.36;100373.81;10415382;28;20129;-73
2023/11/28 21:39:14;;;;;;;1999.90;999.90;;;;;;;6.49;65.15;100364.78;10398018;28;20128;-73
2023/11/28 21:44:17;;;;;;;1999.90;999.90;;;;;;;6.85;65.06;100366.50;10397583;28;20598;-73
2023/11/28 21:49:19;;;;;;;1999.90;999.90;;;;;;;6.49;65.88;100360.41;10381304;28;20053;-73
2023/11/28 21:54:22;;;;;;;1999.90;999.90;;;;;;;7.09;65.37;100353.19;10422671;28;20077;-73
2023/11/28 21:59:25;;;;;;;1999.90;999.90;;;;;;;6.66;65.52;100336.19;10405752;28;20049;-73
2023/11/28 22:04:27;;;;;;;1999.90;999.90;;;;;;;6.96;65.55;100333.00;10423179;28;20041;-73
2023/11/28 22:09:30;;;;;;;1999.90;999.90;;;;;;;7.33;65.87;100333.75;10422737;28;20061;-73